Magne Viking — OURK2 — position and weather

sailwx.info

Track history (hours):
 
Tides and Currents Weather Stations Pressure Air Temp Water Temp Dewpoint Dewpoint Depression Visibility Wind Speed Wind Dir Waves Ship Positions

Magne Viking

Last reported at 2015-Jan-31 22:04 UTC. Time now 2015-Feb-01 07:17 UTC.
Position N 57°09' W 002°03'.

Length 85 m; draft 6.7 m.

Type: Tug. MMSI: 219375000.

Date/timePositionNaut miles runAvg speedWind from/ knotsBaromVisibWave heightAir tempDewpointWater temp
2015-Jan-31 22:04N 57°09' W 002°03'1 2.7
2015-Jan-31 21:33N 57°08' W 002°05'0 0.0
2015-Jan-31 20:31N 57°08' W 002°05'0 0.0
2015-Jan-31 19:31N 57°08' W 002°05'0 0.0
2015-Jan-31 18:32N 57°08' W 002°05'0 0.0
2015-Jan-31 17:33N 57°08' W 002°05'0 0.0
2015-Jan-31 16:33N 57°08' W 002°05'0 0.0
2015-Jan-31 15:31N 57°08' W 002°05'0 0.1
2015-Jan-31 14:32N 57°08' W 002°05'0 0.0
2015-Jan-31 13:32N 57°08' W 002°05'0 0.0
2015-Jan-31 12:33N 57°08' W 002°05'0 0.0
2015-Jan-31 11:31N 57°08' W 002°05'0 0.0
2015-Jan-31 10:32N 57°08' W 002°05'  
2015-Jan-27 16:11N 57°13' W 001°59'0 0.0
2015-Jan-27 10:12N 57°13' W 001°59'0 0.0
2015-Jan-27 09:10N 57°13' W 001°59'0 0.0
2015-Jan-27 07:17N 57°13' W 001°59'0 0.0
2015-Jan-27 06:12N 57°13' W 001°59'0 0.0
2015-Jan-26 23:22N 57°13' W 001°59'5 5.9
2015-Jan-26 22:28N 57°16' W 001°51'7 7.7
2015-Jan-26 21:33N 57°20' W 001°40'8 8.1
2015-Jan-26 20:33N 57°25' W 001°28'9 8.8
2015-Jan-26 19:32N 57°30' W 001°15'9 8.7
2015-Jan-26 18:27N 57°36' W 001°02'  
Track history (hours):
 
Tides and Currents Weather Stations Pressure Air Temp Water Temp Dewpoint Dewpoint Depression Visibility Wind Speed Wind Dir Waves Ship Positions

Magne Viking

Last reported at 2015-Jan-31 22:04 UTC. Time now 2015-Feb-01 07:17 UTC.
Position N 57°09' W 002°03'.

Length 85 m; draft 6.7 m.

Type: Tug. MMSI: 219375000.

Date/timePositionNaut miles runAvg speedWind from/ knotsBaromVisibWave heightAir tempDewpointWater temp
2015-Jan-31 22:04N 57°09' W 002°03'1 2.7
2015-Jan-31 21:33N 57°08' W 002°05'0 0.0
2015-Jan-31 20:31N 57°08' W 002°05'0 0.0
2015-Jan-31 19:31N 57°08' W 002°05'0 0.0
2015-Jan-31 18:32N 57°08' W 002°05'0 0.0
2015-Jan-31 17:33N 57°08' W 002°05'0 0.0
2015-Jan-31 16:33N 57°08' W 002°05'0 0.0
2015-Jan-31 15:31N 57°08' W 002°05'0 0.1
2015-Jan-31 14:32N 57°08' W 002°05'0 0.0
2015-Jan-31 13:32N 57°08' W 002°05'0 0.0
2015-Jan-31 12:33N 57°08' W 002°05'0 0.0
2015-Jan-31 11:31N 57°08' W 002°05'0 0.0
2015-Jan-31 10:32N 57°08' W 002°05'  
2015-Jan-27 16:11N 57°13' W 001°59'0 0.0
2015-Jan-27 10:12N 57°13' W 001°59'0 0.0
2015-Jan-27 09:10N 57°13' W 001°59'0 0.0
2015-Jan-27 07:17N 57°13' W 001°59'0 0.0
2015-Jan-27 06:12N 57°13' W 001°59'0 0.0
2015-Jan-26 23:22N 57°13' W 001°59'5 5.9
2015-Jan-26 22:28N 57°16' W 001°51'7 7.7
2015-Jan-26 21:33N 57°20' W 001°40'8 8.1
2015-Jan-26 20:33N 57°25' W 001°28'9 8.8
2015-Jan-26 19:32N 57°30' W 001°15'9 8.7
2015-Jan-26 18:27N 57°36' W 001°02'  

Dump ship's entire track history